sensor_id;sensor_type;location;lat;lon;timestamp;temperature;humidity
758;DHT22;363;48.764;9.172;2024-03-08T00:02:03;5.50;99.90
758;DHT22;363;48.764;9.172;2024-03-08T00:04:29;5.40;99.90
758;DHT22;363;48.764;9.172;2024-03-08T00:06:54;5.30;99.90
758;DHT22;363;48.764;9.172;2024-03-08T00:09:20;5.30;99.90
758;DHT22;363;48.764;9.172;2024-03-08T00:11:46;5.40;99.90
758;DHT22;363;48.764;9.172;2024-03-08T00:14:12;5.60;99.90
758;DHT22;363;48.764;9.172;2024-03-08T00:16:37;5.50;99.90
758;DHT22;363;48.764;9.172;2024-03-08T00:19:03;5.60;99.90
758;DHT22;363;48.764;9.172;2024-03-08T00:21:29;5.30;99.90
758;DHT22;363;48.764;9.172;2024-03-08T00:23:54;5.60;99.90
758;DHT22;363;48.764;9.172;2024-03-08T00:26:21;5.20;99.90
758;DHT22;363;48.764;9.172;2024-03-08T00:28:48;5.50;99.90
758;DHT22;363;48.764;9.172;2024-03-08T00:31:14;5.10;99.90
758;DHT22;363;48.764;9.172;2024-03-08T00:33:41;5.00;99.90
758;DHT22;363;48.764;9.172;2024-03-08T00:36:08;5.50;99.90
758;DHT22;363;48.764;9.172;2024-03-08T00:38:33;5.70;99.90
758;DHT22;363;48.764;9.172;2024-03-08T00:40:59;5.00;99.90
758;DHT22;363;48.764;9.172;2024-03-08T00:43:25;5.00;99.90
758;DHT22;363;48.764;9.172;2024-03-08T00:45:51;4.80;99.90
758;DHT22;363;48.764;9.172;2024-03-08T00:48:16;5.20;99.90
758;DHT22;363;48.764;9.172;2024-03-08T00:50:42;4.90;99.90
758;DHT22;363;48.764;9.172;2024-03-08T00:53:11;4.70;99.90
758;DHT22;363;48.764;9.172;2024-03-08T00:55:36;4.50;99.90
758;DHT22;363;48.764;9.172;2024-03-08T00:58:04;4.90;99.90
758;DHT22;363;48.764;9.172;2024-03-08T01:00:30;4.40;99.90
758;DHT22;363;48.764;9.172;2024-03-08T01:02:56;4.60;99.90
758;DHT22;363;48.764;9.172;2024-03-08T01:05:22;4.60;99.90
758;DHT22;363;48.764;9.172;2024-03-08T01:07:50;4.80;99.90
758;DHT22;363;48.764;9.172;2024-03-08T01:10:15;4.50;99.90
758;DHT22;363;48.764;9.172;2024-03-08T01:12:41;4.30;99.90
758;DHT22;363;48.764;9.172;2024-03-08T01:15:09;4.30;99.90
758;DHT22;363;48.764;9.172;2024-03-08T01:17:36;3.70;99.90
758;DHT22;363;48.764;9.172;2024-03-08T01:20:02;4.10;99.90
758;DHT22;363;48.764;9.172;2024-03-08T01:22:28;4.40;99.90
758;DHT22;363;48.764;9.172;2024-03-08T01:24:56;4.00;99.90
758;DHT22;363;48.764;9.172;2024-03-08T01:27:22;4.30;99.90
758;DHT22;363;48.764;9.172;2024-03-08T01:29:48;3.70;99.90
758;DHT22;363;48.764;9.172;2024-03-08T01:32:13;4.00;99.90
758;DHT22;363;48.764;9.172;2024-03-08T01:34:40;4.10;99.90
758;DHT22;363;48.764;9.172;2024-03-08T01:37:05;4.10;99.90
758;DHT22;363;48.764;9.172;2024-03-08T01:39:32;3.90;99.90
758;DHT22;363;48.764;9.172;2024-03-08T01:41:57;3.90;99.90
758;DHT22;363;48.764;9.172;2024-03-08T01:44:23;3.90;99.90
758;DHT22;363;48.764;9.172;2024-03-08T01:46:49;3.80;99.90
758;DHT22;363;48.764;9.172;2024-03-08T01:49:16;4.00;99.90
758;DHT22;363;48.764;9.172;2024-03-08T01:51:43;3.90;99.90
758;DHT22;363;48.764;9.172;2024-03-08T01:54:10;3.60;99.90
758;DHT22;363;48.764;9.172;2024-03-08T01:56:37;3.70;99.90
758;DHT22;363;48.764;9.172;2024-03-08T01:59:04;3.60;99.90
758;DHT22;363;48.764;9.172;2024-03-08T02:01:31;4.10;99.90
758;DHT22;363;48.764;9.172;2024-03-08T02:03:57;3.70;99.90
758;DHT22;363;48.764;9.172;2024-03-08T02:06:23;3.50;99.90
758;DHT22;363;48.764;9.172;2024-03-08T02:08:48;3.70;99.90
758;DHT22;363;48.764;9.172;2024-03-08T02:11:14;3.50;99.90
758;DHT22;363;48.764;9.172;2024-03-08T02:13:39;3.40;99.90
758;DHT22;363;48.764;9.172;2024-03-08T02:16:05;3.50;99.90
758;DHT22;363;48.764;9.172;2024-03-08T02:18:33;3.80;99.90
758;DHT22;363;48.764;9.172;2024-03-08T02:21:01;3.30;99.90
758;DHT22;363;48.764;9.172;2024-03-08T02:23:27;3.30;99.90
758;DHT22;363;48.764;9.172;2024-03-08T02:25:55;3.90;99.90
758;DHT22;363;48.764;9.172;2024-03-08T02:28:21;4.10;99.90
758;DHT22;363;48.764;9.172;2024-03-08T02:30:47;3.40;99.90
758;DHT22;363;48.764;9.172;2024-03-08T02:33:14;3.80;99.90
758;DHT22;363;48.764;9.172;2024-03-08T02:35:44;3.90;99.90
758;DHT22;363;48.764;9.172;2024-03-08T02:38:13;3.40;99.90
758;DHT22;363;48.764;9.172;2024-03-08T02:40:48;2.60;99.90
758;DHT22;363;48.764;9.172;2024-03-08T02:43:15;3.30;99.90
758;DHT22;363;48.764;9.172;2024-03-08T02:45:42;3.70;99.90
758;DHT22;363;48.764;9.172;2024-03-08T02:48:10;3.30;99.90
758;DHT22;363;48.764;9.172;2024-03-08T02:50:36;3.30;99.90
758;DHT22;363;48.764;9.172;2024-03-08T02:53:03;3.30;99.90
758;DHT22;363;48.764;9.172;2024-03-08T02:55:29;3.30;99.90
758;DHT22;363;48.764;9.172;2024-03-08T02:57:55;3.30;99.90
758;DHT22;363;48.764;9.172;2024-03-08T03:00:21;2.70;99.90
758;DHT22;363;48.764;9.172;2024-03-08T03:02:49;3.40;99.90
758;DHT22;363;48.764;9.172;2024-03-08T03:05:22;3.50;99.90
758;DHT22;363;48.764;9.172;2024-03-08T03:07:47;3.70;99.90
758;DHT22;363;48.764;9.172;2024-03-08T03:10:14;3.60;99.90
758;DHT22;363;48.764;9.172;2024-03-08T03:12:42;3.80;99.90
758;DHT22;363;48.764;9.172;2024-03-08T03:15:08;3.60;99.90
758;DHT22;363;48.764;9.172;2024-03-08T03:17:34;3.40;99.90
758;DHT22;363;48.764;9.172;2024-03-08T03:20:00;3.60;99.90
758;DHT22;363;48.764;9.172;2024-03-08T03:22:34;3.90;99.90
758;DHT22;363;48.764;9.172;2024-03-08T03:27:26;3.50;99.90
758;DHT22;363;48.764;9.172;2024-03-08T03:29:51;3.80;99.90
758;DHT22;363;48.764;9.172;2024-03-08T03:32:17;3.50;99.90
758;DHT22;363;48.764;9.172;2024-03-08T03:34:44;4.10;99.90
758;DHT22;363;48.764;9.172;2024-03-08T03:37:10;4.00;99.90
758;DHT22;363;48.764;9.172;2024-03-08T03:39:39;3.70;99.90
758;DHT22;363;48.764;9.172;2024-03-08T03:42:19;3.80;99.90
758;DHT22;363;48.764;9.172;2024-03-08T03:44:46;3.70;99.90
758;DHT22;363;48.764;9.172;2024-03-08T03:47:12;3.60;99.90
758;DHT22;363;48.764;9.172;2024-03-08T03:49:38;3.60;99.90
758;DHT22;363;48.764;9.172;2024-03-08T03:52:04;3.80;99.90
758;DHT22;363;48.764;9.172;2024-03-08T03:54:30;3.90;99.90
758;DHT22;363;48.764;9.172;2024-03-08T03:56:56;3.80;99.90
758;DHT22;363;48.764;9.172;2024-03-08T03:59:22;3.70;99.90
758;DHT22;363;48.764;9.172;2024-03-08T04:01:47;3.70;99.90
758;DHT22;363;48.764;9.172;2024-03-08T04:04:15;3.60;99.90
758;DHT22;363;48.764;9.172;2024-03-08T04:06:40;3.70;99.90
758;DHT22;363;48.764;9.172;2024-03-08T04:09:06;3.80;99.90
758;DHT22;363;48.764;9.172;2024-03-08T04:11:32;3.80;99.90
758;DHT22;363;48.764;9.172;2024-03-08T04:13:57;3.70;99.90
758;DHT22;363;48.764;9.172;2024-03-08T04:16:23;3.60;99.90
758;DHT22;363;48.764;9.172;2024-03-08T04:18:49;4.10;99.90
758;DHT22;363;48.764;9.172;2024-03-08T04:21:15;3.70;99.90
758;DHT22;363;48.764;9.172;2024-03-08T04:23:41;3.60;99.90
758;DHT22;363;48.764;9.172;2024-03-08T04:26:06;3.70;99.90
758;DHT22;363;48.764;9.172;2024-03-08T04:28:32;3.80;99.90
758;DHT22;363;48.764;9.172;2024-03-08T04:30:58;3.60;99.90
758;DHT22;363;48.764;9.172;2024-03-08T04:33:26;3.50;99.90
758;DHT22;363;48.764;9.172;2024-03-08T04:35:52;4.00;99.90
758;DHT22;363;48.764;9.172;2024-03-08T04:38:18;3.60;99.90
758;DHT22;363;48.764;9.172;2024-03-08T04:40:43;3.40;99.90
758;DHT22;363;48.764;9.172;2024-03-08T04:43:09;4.10;99.90
758;DHT22;363;48.764;9.172;2024-03-08T04:45:36;3.60;99.90
758;DHT22;363;48.764;9.172;2024-03-08T04:48:02;3.60;99.90
758;DHT22;363;48.764;9.172;2024-03-08T04:50:27;3.50;99.90
758;DHT22;363;48.764;9.172;2024-03-08T04:52:56;3.40;99.90
758;DHT22;363;48.764;9.172;2024-03-08T04:55:21;3.70;99.90
758;DHT22;363;48.764;9.172;2024-03-08T04:57:48;3.60;99.90
758;DHT22;363;48.764;9.172;2024-03-08T05:00:14;3.60;99.90
758;DHT22;363;48.764;9.172;2024-03-08T05:02:41;3.50;99.90
758;DHT22;363;48.764;9.172;2024-03-08T05:05:09;3.50;99.90
758;DHT22;363;48.764;9.172;2024-03-08T05:07:38;3.50;99.90
758;DHT22;363;48.764;9.172;2024-03-08T05:10:05;3.60;99.90
758;DHT22;363;48.764;9.172;2024-03-08T05:12:33;3.60;99.90
758;DHT22;363;48.764;9.172;2024-03-08T05:14:58;4.10;99.90
758;DHT22;363;48.764;9.172;2024-03-08T05:17:24;4.00;99.90
758;DHT22;363;48.764;9.172;2024-03-08T05:19:50;3.60;99.90
758;DHT22;363;48.764;9.172;2024-03-08T05:22:16;3.50;99.90
758;DHT22;363;48.764;9.172;2024-03-08T05:24:42;3.50;99.90
758;DHT22;363;48.764;9.172;2024-03-08T05:27:07;3.60;99.90
758;DHT22;363;48.764;9.172;2024-03-08T05:29:33;3.60;99.90
758;DHT22;363;48.764;9.172;2024-03-08T05:31:58;3.60;99.90
758;DHT22;363;48.764;9.172;2024-03-08T05:34:24;3.40;99.90
758;DHT22;363;48.764;9.172;2024-03-08T05:36:51;3.90;99.90
758;DHT22;363;48.764;9.172;2024-03-08T05:39:19;3.50;99.90
758;DHT22;363;48.764;9.172;2024-03-08T05:41:45;3.40;99.90
758;DHT22;363;48.764;9.172;2024-03-08T05:44:11;3.80;99.90
758;DHT22;363;48.764;9.172;2024-03-08T05:46:37;3.80;99.90
758;DHT22;363;48.764;9.172;2024-03-08T05:49:03;3.50;99.90
758;DHT22;363;48.764;9.172;2024-03-08T05:51:47;3.50;99.90
758;DHT22;363;48.764;9.172;2024-03-08T05:54:13;3.30;99.90
758;DHT22;363;48.764;9.172;2024-03-08T05:56:40;3.40;99.90
758;DHT22;363;48.764;9.172;2024-03-08T05:59:11;3.50;99.90
758;DHT22;363;48.764;9.172;2024-03-08T06:01:36;4.00;99.90
758;DHT22;363;48.764;9.172;2024-03-08T06:04:03;3.40;99.90
758;DHT22;363;48.764;9.172;2024-03-08T06:06:30;3.70;99.90
758;DHT22;363;48.764;9.172;2024-03-08T06:08:56;3.80;99.90
758;DHT22;363;48.764;9.172;2024-03-08T06:11:22;3.80;99.90
758;DHT22;363;48.764;9.172;2024-03-08T06:13:49;3.70;99.90
758;DHT22;363;48.764;9.172;2024-03-08T06:16:15;4.10;99.90
758;DHT22;363;48.764;9.172;2024-03-08T06:18:41;4.00;99.90
758;DHT22;363;48.764;9.172;2024-03-08T06:21:07;4.10;99.90
758;DHT22;363;48.764;9.172;2024-03-08T06:23:35;3.70;99.90
758;DHT22;363;48.764;9.172;2024-03-08T06:26:04;3.50;99.90
758;DHT22;363;48.764;9.172;2024-03-08T06:28:30;3.70;99.90
758;DHT22;363;48.764;9.172;2024-03-08T06:31:00;3.70;99.90
758;DHT22;363;48.764;9.172;2024-03-08T06:33:26;3.50;99.90
758;DHT22;363;48.764;9.172;2024-03-08T06:35:54;5.40;99.90
758;DHT22;363;48.764;9.172;2024-03-08T06:38:25;3.50;99.90
758;DHT22;363;48.764;9.172;2024-03-08T06:40:51;3.50;99.90
758;DHT22;363;48.764;9.172;2024-03-08T06:43:17;3.40;99.90
758;DHT22;363;48.764;9.172;2024-03-08T06:45:44;3.60;99.90
758;DHT22;363;48.764;9.172;2024-03-08T06:48:14;3.20;99.90
758;DHT22;363;48.764;9.172;2024-03-08T06:50:40;3.50;99.90
758;DHT22;363;48.764;9.172;2024-03-08T06:53:05;3.70;99.90
758;DHT22;363;48.764;9.172;2024-03-08T06:55:31;3.50;99.90
758;DHT22;363;48.764;9.172;2024-03-08T06:57:59;3.70;99.90
758;DHT22;363;48.764;9.172;2024-03-08T07:00:25;4.20;99.90
758;DHT22;363;48.764;9.172;2024-03-08T07:02:52;3.90;99.90
758;DHT22;363;48.764;9.172;2024-03-08T07:05:19;4.30;99.90
758;DHT22;363;48.764;9.172;2024-03-08T07:07:45;3.90;99.90
758;DHT22;363;48.764;9.172;2024-03-08T07:10:14;4.60;99.90
758;DHT22;363;48.764;9.172;2024-03-08T07:12:42;5.30;99.90
758;DHT22;363;48.764;9.172;2024-03-08T07:15:08;5.10;99.90
758;DHT22;363;48.764;9.172;2024-03-08T07:17:39;5.10;99.90
758;DHT22;363;48.764;9.172;2024-03-08T07:20:05;5.40;99.90
758;DHT22;363;48.764;9.172;2024-03-08T07:22:32;5.40;99.90
758;DHT22;363;48.764;9.172;2024-03-08T07:24:58;5.50;99.90
758;DHT22;363;48.764;9.172;2024-03-08T07:27:33;5.60;99.90
758;DHT22;363;48.764;9.172;2024-03-08T07:29:59;5.90;99.90
758;DHT22;363;48.764;9.172;2024-03-08T07:32:26;5.40;99.90
758;DHT22;363;48.764;9.172;2024-03-08T07:34:53;5.60;99.90
758;DHT22;363;48.764;9.172;2024-03-08T07:37:20;5.60;99.90
758;DHT22;363;48.764;9.172;2024-03-08T07:39:46;5.60;99.90
758;DHT22;363;48.764;9.172;2024-03-08T07:42:12;5.80;99.90
758;DHT22;363;48.764;9.172;2024-03-08T07:44:38;5.70;99.90
758;DHT22;363;48.764;9.172;2024-03-08T07:47:04;5.90;99.90
758;DHT22;363;48.764;9.172;2024-03-08T07:49:29;5.90;99.90
758;DHT22;363;48.764;9.172;2024-03-08T07:51:56;5.50;99.90
758;DHT22;363;48.764;9.172;2024-03-08T07:54:21;5.80;99.90
758;DHT22;363;48.764;9.172;2024-03-08T07:56:47;6.20;99.90
758;DHT22;363;48.764;9.172;2024-03-08T07:59:13;6.20;99.90
758;DHT22;363;48.764;9.172;2024-03-08T08:01:39;6.30;99.90
758;DHT22;363;48.764;9.172;2024-03-08T08:04:04;5.80;99.90
758;DHT22;363;48.764;9.172;2024-03-08T08:06:30;6.30;99.90
758;DHT22;363;48.764;9.172;2024-03-08T08:08:59;6.10;99.90
758;DHT22;363;48.764;9.172;2024-03-08T08:11:26;6.40;99.90
758;DHT22;363;48.764;9.172;2024-03-08T08:13:54;6.20;99.90
758;DHT22;363;48.764;9.172;2024-03-08T08:16:22;6.30;99.90
758;DHT22;363;48.764;9.172;2024-03-08T08:18:48;6.20;99.90
758;DHT22;363;48.764;9.172;2024-03-08T08:21:14;6.20;99.90
758;DHT22;363;48.764;9.172;2024-03-08T08:23:39;5.70;99.90
758;DHT22;363;48.764;9.172;2024-03-08T08:26:05;5.80;99.90
758;DHT22;363;48.764;9.172;2024-03-08T08:28:33;5.90;99.90
758;DHT22;363;48.764;9.172;2024-03-08T08:30:58;5.50;99.90
758;DHT22;363;48.764;9.172;2024-03-08T08:33:25;6.30;99.90
758;DHT22;363;48.764;9.172;2024-03-08T08:35:51;5.80;99.90
758;DHT22;363;48.764;9.172;2024-03-08T08:38:19;5.70;99.90
758;DHT22;363;48.764;9.172;2024-03-08T08:41:01;6.20;99.90
758;DHT22;363;48.764;9.172;2024-03-08T08:43:27;6.00;99.90
758;DHT22;363;48.764;9.172;2024-03-08T08:45:53;5.80;99.90
758;DHT22;363;48.764;9.172;2024-03-08T08:48:22;6.00;99.90
758;DHT22;363;48.764;9.172;2024-03-08T08:50:47;6.00;99.90
758;DHT22;363;48.764;9.172;2024-03-08T08:53:14;6.20;99.90
758;DHT22;363;48.764;9.172;2024-03-08T08:55:40;6.30;99.90
758;DHT22;363;48.764;9.172;2024-03-08T08:58:06;6.10;99.90
758;DHT22;363;48.764;9.172;2024-03-08T09:00:33;6.60;99.90
758;DHT22;363;48.764;9.172;2024-03-08T09:03:00;6.00;99.90
758;DHT22;363;48.764;9.172;2024-03-08T09:05:25;6.50;99.90
758;DHT22;363;48.764;9.172;2024-03-08T09:07:51;6.40;99.90
758;DHT22;363;48.764;9.172;2024-03-08T09:10:18;6.10;99.90
758;DHT22;363;48.764;9.172;2024-03-08T09:12:44;6.50;99.90
758;DHT22;363;48.764;9.172;2024-03-08T09:15:10;6.30;99.90
758;DHT22;363;48.764;9.172;2024-03-08T09:17:39;6.30;99.90
758;DHT22;363;48.764;9.172;2024-03-08T09:20:09;6.50;99.90
758;DHT22;363;48.764;9.172;2024-03-08T09:22:35;6.50;99.90
758;DHT22;363;48.764;9.172;2024-03-08T09:25:01;6.60;99.90
758;DHT22;363;48.764;9.172;2024-03-08T09:27:30;6.70;99.90
758;DHT22;363;48.764;9.172;2024-03-08T09:29:55;6.30;99.90
758;DHT22;363;48.764;9.172;2024-03-08T09:32:21;6.40;99.90
758;DHT22;363;48.764;9.172;2024-03-08T09:34:48;6.50;99.90
758;DHT22;363;48.764;9.172;2024-03-08T09:37:13;6.90;99.90
758;DHT22;363;48.764;9.172;2024-03-08T09:39:39;6.40;99.90
758;DHT22;363;48.764;9.172;2024-03-08T09:42:05;6.50;99.90
758;DHT22;363;48.764;9.172;2024-03-08T09:44:31;6.50;99.90
758;DHT22;363;48.764;9.172;2024-03-08T09:46:59;7.10;99.90
758;DHT22;363;48.764;9.172;2024-03-08T09:49:25;6.70;99.90
758;DHT22;363;48.764;9.172;2024-03-08T09:51:50;6.90;99.90
758;DHT22;363;48.764;9.172;2024-03-08T09:54:18;7.30;99.90
758;DHT22;363;48.764;9.172;2024-03-08T09:56:47;7.10;99.90
758;DHT22;363;48.764;9.172;2024-03-08T09:59:14;7.20;99.90
758;DHT22;363;48.764;9.172;2024-03-08T10:01:48;7.30;99.90
758;DHT22;363;48.764;9.172;2024-03-08T10:04:14;7.40;99.90
758;DHT22;363;48.764;9.172;2024-03-08T10:06:40;7.50;99.90
758;DHT22;363;48.764;9.172;2024-03-08T10:09:06;7.40;99.90
758;DHT22;363;48.764;9.172;2024-03-08T10:11:34;8.20;99.90
758;DHT22;363;48.764;9.172;2024-03-08T10:14:00;7.50;99.90
758;DHT22;363;48.764;9.172;2024-03-08T10:16:27;7.70;99.90
758;DHT22;363;48.764;9.172;2024-03-08T10:18:55;8.00;99.90
758;DHT22;363;48.764;9.172;2024-03-08T10:21:21;7.30;99.70
758;DHT22;363;48.764;9.172;2024-03-08T10:23:48;7.70;99.90
758;DHT22;363;48.764;9.172;2024-03-08T10:26:15;7.90;99.90
758;DHT22;363;48.764;9.172;2024-03-08T10:28:45;8.00;99.50
758;DHT22;363;48.764;9.172;2024-03-08T10:31:10;8.10;99.30
758;DHT22;363;48.764;9.172;2024-03-08T10:33:36;8.50;99.70
758;DHT22;363;48.764;9.172;2024-03-08T10:36:04;8.20;99.20
758;DHT22;363;48.764;9.172;2024-03-08T10:38:31;7.80;98.30
758;DHT22;363;48.764;9.172;2024-03-08T10:41:02;8.80;98.60
758;DHT22;363;48.764;9.172;2024-03-08T10:43:32;8.70;98.10
758;DHT22;363;48.764;9.172;2024-03-08T10:46:30;9.00;97.50
758;DHT22;363;48.764;9.172;2024-03-08T10:49:00;9.30;96.90
758;DHT22;363;48.764;9.172;2024-03-08T10:51:29;9.60;96.40
758;DHT22;363;48.764;9.172;2024-03-08T10:53:57;9.80;96.30
758;DHT22;363;48.764;9.172;2024-03-08T10:56:23;9.40;95.90
758;DHT22;363;48.764;9.172;2024-03-08T10:58:50;9.40;95.80
758;DHT22;363;48.764;9.172;2024-03-08T11:01:16;9.50;95.50
758;DHT22;363;48.764;9.172;2024-03-08T11:09:49;11.00;92.50
758;DHT22;363;48.764;9.172;2024-03-08T11:11:49;11.40;92.00
758;DHT22;363;48.764;9.172;2024-03-08T11:14:43;11.40;91.90
758;DHT22;363;48.764;9.172;2024-03-08T11:17:09;11.00;92.00
758;DHT22;363;48.764;9.172;2024-03-08T11:19:35;11.30;92.00
758;DHT22;363;48.764;9.172;2024-03-08T11:22:04;12.00;91.30
758;DHT22;363;48.764;9.172;2024-03-08T11:24:37;12.20;90.00
758;DHT22;363;48.764;9.172;2024-03-08T11:27:05;12.00;89.10
758;DHT22;363;48.764;9.172;2024-03-08T11:29:32;11.40;90.60
758;DHT22;363;48.764;9.172;2024-03-08T11:32:15;11.40;90.50
758;DHT22;363;48.764;9.172;2024-03-08T11:34:42;11.10;91.20
758;DHT22;363;48.764;9.172;2024-03-08T11:37:13;10.70;91.80
758;DHT22;363;48.764;9.172;2024-03-08T11:39:45;10.30;92.20
758;DHT22;363;48.764;9.172;2024-03-08T11:42:11;9.90;93.50
758;DHT22;363;48.764;9.172;2024-03-08T11:44:37;9.60;93.90
758;DHT22;363;48.764;9.172;2024-03-08T11:47:10;9.40;94.30
758;DHT22;363;48.764;9.172;2024-03-08T11:49:37;9.30;94.40
758;DHT22;363;48.764;9.172;2024-03-08T11:52:03;9.80;94.10
758;DHT22;363;48.764;9.172;2024-03-08T11:54:30;9.90;93.60
758;DHT22;363;48.764;9.172;2024-03-08T11:56:57;10.40;93.00
758;DHT22;363;48.764;9.172;2024-03-08T11:59:27;11.10;91.70
758;DHT22;363;48.764;9.172;2024-03-08T12:02:03;11.40;91.10
758;DHT22;363;48.764;9.172;2024-03-08T12:04:30;11.30;91.10
758;DHT22;363;48.764;9.172;2024-03-08T12:06:58;11.40;91.60
758;DHT22;363;48.764;9.172;2024-03-08T12:09:25;11.10;91.70
758;DHT22;363;48.764;9.172;2024-03-08T12:11:52;10.50;91.40
758;DHT22;363;48.764;9.172;2024-03-08T12:14:18;10.30;91.80
758;DHT22;363;48.764;9.172;2024-03-08T12:16:46;10.10;92.20
758;DHT22;363;48.764;9.172;2024-03-08T12:19:12;10.40;92.60
758;DHT22;363;48.764;9.172;2024-03-08T12:21:37;10.40;92.80
758;DHT22;363;48.764;9.172;2024-03-08T12:24:08;9.50;93.00
758;DHT22;363;48.764;9.172;2024-03-08T12:26:36;10.60;93.00
758;DHT22;363;48.764;9.172;2024-03-08T12:29:21;11.00;92.60
758;DHT22;363;48.764;9.172;2024-03-08T12:31:58;10.40;92.30
758;DHT22;363;48.764;9.172;2024-03-08T12:34:27;10.40;92.20
758;DHT22;363;48.764;9.172;2024-03-08T12:36:54;10.90;92.50
758;DHT22;363;48.764;9.172;2024-03-08T12:39:21;10.70;92.00
758;DHT22;363;48.764;9.172;2024-03-08T12:41:51;10.50;92.30
758;DHT22;363;48.764;9.172;2024-03-08T12:44:17;10.50;92.40
758;DHT22;363;48.764;9.172;2024-03-08T12:46:44;10.80;92.30
758;DHT22;363;48.764;9.172;2024-03-08T12:49:10;10.50;92.20
758;DHT22;363;48.764;9.172;2024-03-08T12:51:38;10.70;92.90
758;DHT22;363;48.764;9.172;2024-03-08T12:54:04;10.50;91.80
758;DHT22;363;48.764;9.172;2024-03-08T12:56:33;10.50;91.80
758;DHT22;363;48.764;9.172;2024-03-08T12:58:59;10.50;92.30
758;DHT22;363;48.764;9.172;2024-03-08T13:01:31;10.60;92.30
758;DHT22;363;48.764;9.172;2024-03-08T13:04:17;10.80;92.40
758;DHT22;363;48.764;9.172;2024-03-08T13:06:44;10.30;92.40
758;DHT22;363;48.764;9.172;2024-03-08T13:09:12;10.40;92.90
758;DHT22;363;48.764;9.172;2024-03-08T13:11:37;10.90;92.80
758;DHT22;363;48.764;9.172;2024-03-08T13:14:04;10.70;92.70
758;DHT22;363;48.764;9.172;2024-03-08T13:16:30;11.70;93.20
758;DHT22;363;48.764;9.172;2024-03-08T13:18:56;10.50;93.00
758;DHT22;363;48.764;9.172;2024-03-08T13:21:22;10.50;93.10
758;DHT22;363;48.764;9.172;2024-03-08T13:23:49;10.40;92.80
758;DHT22;363;48.764;9.172;2024-03-08T13:26:15;10.60;92.60
758;DHT22;363;48.764;9.172;2024-03-08T13:28:52;10.40;92.10
758;DHT22;363;48.764;9.172;2024-03-08T13:31:20;10.30;92.30
758;DHT22;363;48.764;9.172;2024-03-08T13:33:46;9.90;93.00
758;DHT22;363;48.764;9.172;2024-03-08T13:36:13;10.10;93.10
758;DHT22;363;48.764;9.172;2024-03-08T13:38:46;10.30;93.20
758;DHT22;363;48.764;9.172;2024-03-08T13:41:13;10.10;93.20
758;DHT22;363;48.764;9.172;2024-03-08T13:43:46;10.00;93.50
758;DHT22;363;48.764;9.172;2024-03-08T13:46:13;10.00;93.50
758;DHT22;363;48.764;9.172;2024-03-08T13:48:39;10.30;93.90
758;DHT22;363;48.764;9.172;2024-03-08T13:51:07;10.50;93.80
758;DHT22;363;48.764;9.172;2024-03-08T13:53:33;10.00;93.50
758;DHT22;363;48.764;9.172;2024-03-08T13:56:01;10.40;93.60
758;DHT22;363;48.764;9.172;2024-03-08T13:58:27;10.20;93.30
758;DHT22;363;48.764;9.172;2024-03-08T14:00:53;10.30;93.40
758;DHT22;363;48.764;9.172;2024-03-08T14:03:19;10.10;93.20
758;DHT22;363;48.764;9.172;2024-03-08T14:05:44;10.30;93.30
758;DHT22;363;48.764;9.172;2024-03-08T14:08:12;10.30;93.50
758;DHT22;363;48.764;9.172;2024-03-08T14:10:38;10.30;93.40
758;DHT22;363;48.764;9.172;2024-03-08T14:13:05;10.10;93.10
758;DHT22;363;48.764;9.172;2024-03-08T14:15:32;10.60;93.00
758;DHT22;363;48.764;9.172;2024-03-08T14:17:58;10.70;92.90
758;DHT22;363;48.764;9.172;2024-03-08T14:20:24;10.50;92.30
758;DHT22;363;48.764;9.172;2024-03-08T14:22:54;10.10;92.30
758;DHT22;363;48.764;9.172;2024-03-08T14:25:23;10.70;92.60
758;DHT22;363;48.764;9.172;2024-03-08T14:27:50;10.30;92.30
758;DHT22;363;48.764;9.172;2024-03-08T14:30:20;10.70;92.70
758;DHT22;363;48.764;9.172;2024-03-08T14:32:58;10.40;92.80
758;DHT22;363;48.764;9.172;2024-03-08T14:35:27;10.20;93.10
758;DHT22;363;48.764;9.172;2024-03-08T14:37:55;10.50;93.30
758;DHT22;363;48.764;9.172;2024-03-08T14:40:22;10.60;92.70
758;DHT22;363;48.764;9.172;2024-03-08T14:42:49;11.20;93.00
758;DHT22;363;48.764;9.172;2024-03-08T14:45:15;10.90;92.10
758;DHT22;363;48.764;9.172;2024-03-08T14:47:41;11.20;92.60
758;DHT22;363;48.764;9.172;2024-03-08T14:50:08;10.90;92.00
758;DHT22;363;48.764;9.172;2024-03-08T14:52:35;11.20;92.10
758;DHT22;363;48.764;9.172;2024-03-08T14:57:28;11.00;91.90
758;DHT22;363;48.764;9.172;2024-03-08T14:59:54;11.30;92.50
758;DHT22;363;48.764;9.172;2024-03-08T15:02:19;10.40;92.20
758;DHT22;363;48.764;9.172;2024-03-08T15:04:47;11.20;92.60
758;DHT22;363;48.764;9.172;2024-03-08T15:07:22;10.90;92.80
758;DHT22;363;48.764;9.172;2024-03-08T15:09:48;10.90;92.90
758;DHT22;363;48.764;9.172;2024-03-08T15:12:13;10.90;92.70
758;DHT22;363;48.764;9.172;2024-03-08T15:14:40;11.40;92.90
758;DHT22;363;48.764;9.172;2024-03-08T15:17:09;11.20;92.70
758;DHT22;363;48.764;9.172;2024-03-08T15:19:38;10.90;92.90
758;DHT22;363;48.764;9.172;2024-03-08T15:22:04;11.10;92.70
758;DHT22;363;48.764;9.172;2024-03-08T15:24:29;11.00;92.60
758;DHT22;363;48.764;9.172;2024-03-08T15:26:55;11.10;92.40
758;DHT22;363;48.764;9.172;2024-03-08T15:29:21;11.50;92.40
758;DHT22;363;48.764;9.172;2024-03-08T15:31:52;11.40;92.50
758;DHT22;363;48.764;9.172;2024-03-08T15:34:19;11.20;92.50
758;DHT22;363;48.764;9.172;2024-03-08T15:36:49;11.60;92.60
758;DHT22;363;48.764;9.172;2024-03-08T15:39:19;10.80;92.30
758;DHT22;363;48.764;9.172;2024-03-08T15:41:51;11.40;92.20
758;DHT22;363;48.764;9.172;2024-03-08T15:44:17;10.90;91.90
758;DHT22;363;48.764;9.172;2024-03-08T15:46:42;11.20;92.20
758;DHT22;363;48.764;9.172;2024-03-08T15:49:08;11.40;92.40
758;DHT22;363;48.764;9.172;2024-03-08T15:51:34;11.40;92.50
758;DHT22;363;48.764;9.172;2024-03-08T15:54:02;12.10;92.80
758;DHT22;363;48.764;9.172;2024-03-08T15:56:30;11.80;92.50
758;DHT22;363;48.764;9.172;2024-03-08T15:58:57;11.30;92.30
758;DHT22;363;48.764;9.172;2024-03-08T16:01:23;11.40;92.50
758;DHT22;363;48.764;9.172;2024-03-08T16:03:50;11.00;92.50
758;DHT22;363;48.764;9.172;2024-03-08T16:06:17;11.50;92.80
758;DHT22;363;48.764;9.172;2024-03-08T16:08:50;11.30;92.80
758;DHT22;363;48.764;9.172;2024-03-08T16:11:17;11.10;92.60
758;DHT22;363;48.764;9.172;2024-03-08T16:13:42;11.50;93.10
758;DHT22;363;48.764;9.172;2024-03-08T16:16:08;11.20;92.90
758;DHT22;363;48.764;9.172;2024-03-08T16:18:34;11.60;93.20
758;DHT22;363;48.764;9.172;2024-03-08T16:21:00;11.10;92.80
758;DHT22;363;48.764;9.172;2024-03-08T16:23:30;11.30;92.90
758;DHT22;363;48.764;9.172;2024-03-08T16:25:58;11.20;93.00
758;DHT22;363;48.764;9.172;2024-03-08T16:28:23;11.50;93.40
758;DHT22;363;48.764;9.172;2024-03-08T16:30:54;11.10;92.90
758;DHT22;363;48.764;9.172;2024-03-08T16:33:21;11.10;92.70
758;DHT22;363;48.764;9.172;2024-03-08T16:35:50;11.00;92.60
758;DHT22;363;48.764;9.172;2024-03-08T16:38:17;11.00;92.70
758;DHT22;363;48.764;9.172;2024-03-08T16:40:45;11.10;92.80
758;DHT22;363;48.764;9.172;2024-03-08T16:43:22;11.00;92.80
758;DHT22;363;48.764;9.172;2024-03-08T16:45:48;11.00;92.80
758;DHT22;363;48.764;9.172;2024-03-08T16:48:16;11.00;92.80
758;DHT22;363;48.764;9.172;2024-03-08T16:50:42;10.60;92.80
758;DHT22;363;48.764;9.172;2024-03-08T16:53:11;11.00;93.00
758;DHT22;363;48.764;9.172;2024-03-08T16:55:37;11.20;93.20
758;DHT22;363;48.764;9.172;2024-03-08T16:58:03;11.30;93.20